Time;durP1;ratioP1;P1;durP2;ratioP2;P2;SDS_P1;SDS_P2;PMS_P1;PMS_P2;Temp;Humidity;BMP_temperature;BMP_pressure;BME280_temperature;BME280_humidity;BME280_pressure;Samples;Min_cycle;Max_cycle;Signal;HPM_P1;HPM_P2
2021/10/21 00:02:04;;;;;;;20.13;4.57;;;19.90;68.90;;;;;;5017246;28;20034;-74
2021/10/21 00:04:31;;;;;;;17.00;4.78;;;19.80;68.90;;;;;;5014566;28;20029;-74
2021/10/21 00:06:57;;;;;;;13.50;4.38;;;19.80;68.70;;;;;;5021340;28;20626;-74
2021/10/21 00:09:24;;;;;;;20.55;4.20;;;19.80;68.90;;;;;;5015302;28;20465;-75
2021/10/21 00:11:51;;;;;;;28.48;7.25;;;19.80;68.70;;;;;;5017756;28;20017;-73
2021/10/21 00:14:17;;;;;;;12.68;4.22;;;19.80;68.90;;;;;;5019059;28;20109;-75
2021/10/21 00:16:44;;;;;;;14.63;3.88;;;19.80;68.90;;;;;;5017288;28;20017;-74
2021/10/21 00:19:10;;;;;;;18.02;4.25;;;19.80;68.80;;;;;;5022524;28;20109;-75
2021/10/21 00:21:37;;;;;;;15.90;4.22;;;19.80;68.80;;;;;;5014744;28;20053;-75
2021/10/21 00:24:04;;;;;;;11.45;3.35;;;19.80;68.80;;;;;;5018766;28;20030;-74
2021/10/21 00:26:30;;;;;;;15.60;4.47;;;19.80;68.90;;;;;;5014575;28;20042;-74
2021/10/21 00:28:57;;;;;;;15.65;3.90;;;19.70;68.80;;;;;;5016898;28;20531;-73
2021/10/21 00:31:24;;;;;;;19.88;5.28;;;19.70;68.70;;;;;;5016567;28;20014;-75
2021/10/21 00:33:50;;;;;;;17.77;5.10;;;19.70;68.70;;;;;;5019908;28;20072;-75
2021/10/21 00:36:17;;;;;;;9.80;3.53;;;19.80;68.70;;;;;;5018989;28;20017;-76
2021/10/21 00:38:44;;;;;;;20.15;4.32;;;19.70;68.70;;;;;;5017592;28;20038;-75
2021/10/21 00:41:10;;;;;;;14.27;5.50;;;19.70;68.70;;;;;;5018061;28;20069;-75
2021/10/21 00:43:38;;;;;;;14.95;3.88;;;19.70;69.30;;;;;;5016283;28;20108;-73
2021/10/21 00:56:23;;;;;;;10.93;4.45;;;19.70;69.10;;;;;;5013312;28;20103;-75
2021/10/21 00:58:50;;;;;;;17.95;4.75;;;19.60;69.00;;;;;;5011818;28;20041;-74
2021/10/21 01:01:17;;;;;;;13.65;4.18;;;19.70;69.10;;;;;;5014487;28;21412;-74
2021/10/21 01:03:44;;;;;;;12.10;5.28;;;19.60;69.20;;;;;;5015214;28;20037;-75
2021/10/21 01:06:12;;;;;;;22.58;5.07;;;19.60;69.20;;;;;;5016743;28;20029;-75
2021/10/21 01:08:39;;;;;;;14.23;4.45;;;19.60;69.00;;;;;;5015892;28;20097;-75
2021/10/21 01:11:07;;;;;;;14.10;3.17;;;19.60;68.90;;;;;;5019292;28;20373;-73
2021/10/21 01:13:33;;;;;;;18.10;4.18;;;19.60;68.90;;;;;;5015946;28;20041;-73
2021/10/21 01:16:18;;;;;;;19.73;4.60;;;19.60;68.80;;;;;;5016807;28;20017;-75
2021/10/21 01:18:52;;;;;;;16.10;3.38;;;19.60;68.80;;;;;;5014257;28;20033;-76
2021/10/21 01:21:19;;;;;;;25.95;4.30;;;19.60;68.80;;;;;;5014258;28;20025;-73
2021/10/21 01:23:45;;;;;;;9.85;4.03;;;19.60;69.00;;;;;;5017580;28;20025;-75
2021/10/21 01:26:14;;;;;;;20.92;6.68;;;19.50;69.30;;;;;;4998501;28;20076;-75
2021/10/21 01:28:42;;;;;;;17.88;4.82;;;19.50;69.50;;;;;;5018080;28;20523;-75
2021/10/21 01:31:09;;;;;;;16.75;4.50;;;19.50;69.40;;;;;;5014552;28;20160;-75
2021/10/21 01:33:37;;;;;;;11.02;4.03;;;19.50;69.60;;;;;;5017332;28;20053;-73
2021/10/21 01:36:05;;;;;;;17.00;5.07;;;19.40;69.70;;;;;;5012757;28;20430;-75
2021/10/21 01:38:31;;;;;;;10.88;4.32;;;19.40;70.00;;;;;;5015684;28;20020;-74
2021/10/21 01:40:58;;;;;;;15.25;5.32;;;19.40;69.90;;;;;;5018282;28;20018;-74
2021/10/21 01:43:24;;;;;;;17.13;4.07;;;19.40;70.00;;;;;;5017073;28;20032;-74
2021/10/21 01:45:52;;;;;;;12.50;3.65;;;19.30;70.10;;;;;;5013834;28;20076;-75
2021/10/21 01:48:19;;;;;;;14.95;4.00;;;19.30;70.20;;;;;;5014160;28;20109;-74
2021/10/21 01:50:46;;;;;;;14.30;4.53;;;19.30;70.20;;;;;;5018900;28;20358;-75
2021/10/21 01:53:12;;;;;;;20.90;5.10;;;19.30;70.20;;;;;;5018368;28;20022;-74
2021/10/21 01:55:42;;;;;;;23.02;4.65;;;19.20;70.20;;;;;;5014652;28;20049;-73
2021/10/21 01:58:08;;;;;;;9.35;3.47;;;19.20;70.30;;;;;;5016050;28;20033;-74
2021/10/21 02:00:35;;;;;;;16.85;3.78;;;19.20;70.30;;;;;;5016555;28;20029;-73
2021/10/21 02:03:02;;;;;;;25.20;5.60;;;19.20;71.00;;;;;;5015923;28;20018;-74
2021/10/21 02:05:29;;;;;;;14.57;4.07;;;19.10;70.30;;;;;;5018298;28;20076;-73
2021/10/21 02:07:55;;;;;;;14.07;3.50;;;19.20;70.50;;;;;;5016017;28;20748;-75
2021/10/21 02:10:22;;;;;;;15.80;4.63;;;19.20;70.30;;;;;;5015881;28;20022;-74
2021/10/21 02:12:49;;;;;;;14.20;4.53;;;19.10;70.00;;;;;;5017983;28;20025;-75
2021/10/21 02:15:16;;;;;;;18.73;4.35;;;19.10;70.10;;;;;;5017126;28;20025;-75
2021/10/21 02:17:43;;;;;;;19.10;5.05;;;19.10;69.90;;;;;;5014530;28;20523;-75
2021/10/21 02:20:11;;;;;;;14.77;4.70;;;19.10;69.80;;;;;;5018257;28;20026;-74
2021/10/21 02:22:43;;;;;;;19.65;4.57;;;19.10;69.80;;;;;;5013832;28;20124;-75
2021/10/21 02:25:12;;;;;;;18.50;4.15;;;19.10;69.90;;;;;;5014601;28;20037;-72
2021/10/21 02:27:39;;;;;;;13.15;3.55;;;19.00;69.80;;;;;;5017638;28;20029;-75
2021/10/21 02:30:07;;;;;;;12.05;3.85;;;19.00;69.90;;;;;;5017125;28;20018;-72
2021/10/21 02:32:34;;;;;;;14.55;3.72;;;19.00;69.90;;;;;;4998962;28;20018;-73
2021/10/21 02:35:00;;;;;;;16.23;4.00;;;19.00;70.00;;;;;;5021142;28;20512;-74
2021/10/21 02:37:27;;;;;;;17.95;4.50;;;19.00;70.10;;;;;;5020974;28;20050;-74
2021/10/21 02:39:54;;;;;;;19.48;4.13;;;19.00;70.20;;;;;;5018111;28;20064;-75
2021/10/21 02:42:20;;;;;;;61.28;45.92;;;18.90;70.40;;;;;;5022321;28;20079;-75
2021/10/21 02:44:47;;;;;;;90.30;69.85;;;18.90;70.50;;;;;;5018737;28;20608;-73
2021/10/21 02:47:13;;;;;;;41.90;23.33;;;18.90;70.40;;;;;;5021606;28;20049;-74
2021/10/21 02:49:40;;;;;;;19.25;5.20;;;18.90;70.50;;;;;;5016638;28;20025;-76
2021/10/21 02:52:06;;;;;;;18.50;4.00;;;18.90;70.70;;;;;;5018677;28;20026;-75
2021/10/21 02:54:33;;;;;;;15.50;4.70;;;18.90;70.70;;;;;;5018837;28;20025;-75
2021/10/21 02:57:00;;;;;;;14.05;3.65;;;18.80;71.10;;;;;;5017445;28;20099;-76
2021/10/21 02:59:26;;;;;;;13.98;3.63;;;18.80;71.40;;;;;;5021033;28;20389;-75
2021/10/21 03:01:53;;;;;;;15.90;4.53;;;18.80;71.70;;;;;;5018844;28;20025;-74
2021/10/21 03:04:20;;;;;;;14.48;4.82;;;18.70;72.10;;;;;;5020242;28;20417;-74
2021/10/21 03:06:46;;;;;;;18.58;4.95;;;18.70;72.60;;;;;;5018317;28;20392;-75
2021/10/21 03:09:13;;;;;;;14.98;4.95;;;18.80;72.60;;;;;;5021011;28;20029;-74
2021/10/21 03:11:39;;;;;;;20.50;4.95;;;18.70;72.70;;;;;;5019054;28;20132;-73
2021/10/21 03:14:06;;;;;;;16.17;3.90;;;18.70;72.50;;;;;;5021529;28;20492;-75
2021/10/21 03:16:35;;;;;;;13.68;5.50;;;18.70;72.50;;;;;;5014683;28;20036;-74
2021/10/21 03:19:03;;;;;;;14.98;5.35;;;18.70;73.20;;;;;;5016150;28;20104;-74
2021/10/21 03:21:30;;;;;;;16.55;4.70;;;18.70;72.70;;;;;;5020072;28;20670;-74
2021/10/21 03:23:57;;;;;;;21.02;4.90;;;18.70;72.70;;;;;;5017318;28;20144;-74
2021/10/21 03:26:24;;;;;;;16.45;4.13;;;18.60;72.80;;;;;;5021596;28;20485;-74
2021/10/21 03:28:51;;;;;;;13.00;3.50;;;18.60;72.90;;;;;;5018592;28;20028;-74
2021/10/21 03:31:18;;;;;;;19.15;4.13;;;18.60;73.00;;;;;;5016128;28;20018;-75
2021/10/21 03:33:45;;;;;;;21.00;5.97;;;18.60;73.10;;;;;;5020127;28;20370;-74
2021/10/21 03:36:12;;;;;;;13.57;3.50;;;18.60;73.30;;;;;;5014602;28;20068;-76
2021/10/21 03:38:39;;;;;;;17.75;4.80;;;18.60;73.20;;;;;;5021488;28;20026;-74
2021/10/21 03:41:06;;;;;;;17.15;4.10;;;18.60;73.40;;;;;;5018679;28;20028;-74
2021/10/21 03:43:32;;;;;;;14.90;4.25;;;18.50;73.40;;;;;;5019660;28;20030;-75
2021/10/21 03:45:59;;;;;;;16.13;4.95;;;18.50;73.60;;;;;;5018714;28;20018;-74
2021/10/21 03:48:25;;;;;;;15.65;4.15;;;18.50;74.00;;;;;;5020220;28;20009;-73
2021/10/21 03:51:00;;;;;;;18.27;5.20;;;18.50;74.30;;;;;;5017602;28;20381;-74
2021/10/21 03:53:27;;;;;;;18.65;5.18;;;18.40;74.40;;;;;;5016927;28;20476;-75
2021/10/21 03:55:54;;;;;;;22.10;4.95;;;18.40;74.80;;;;;;5021950;28;20092;-77
2021/10/21 03:58:21;;;;;;;15.00;3.67;;;18.40;75.00;;;;;;5017587;28;20022;-72
2021/10/21 04:00:47;;;;;;;12.48;5.35;;;18.40;75.20;;;;;;5018425;28;20434;-73
2021/10/21 04:03:22;;;;;;;58.58;43.00;;;18.40;75.40;;;;;;5016570;28;20110;-71
2021/10/21 04:05:49;;;;;;;41.50;27.85;;;18.40;75.60;;;;;;5009713;28;20441;-80
2021/10/21 04:08:15;;;;;;;18.05;6.55;;;18.40;75.60;;;;;;5021280;28;20481;-74
2021/10/21 04:10:42;;;;;;;21.17;7.55;;;18.40;75.70;;;;;;5019984;28;20400;-74
2021/10/21 04:13:10;;;;;;;16.83;6.82;;;18.40;75.90;;;;;;5020955;28;20120;-75
2021/10/21 04:15:37;;;;;;;28.42;8.32;;;18.40;76.00;;;;;;5017071;28;20519;-74
2021/10/21 04:18:04;;;;;;;22.00;7.07;;;18.40;76.20;;;;;;5017809;28;20105;-78
2021/10/21 04:20:30;;;;;;;19.25;4.75;;;18.40;76.30;;;;;;5019264;28;20044;-76
2021/10/21 04:22:57;;;;;;;40.00;16.80;;;18.40;76.70;;;;;;5018240;28;20021;-75
2021/10/21 04:25:32;;;;;;;31.27;16.40;;;18.40;76.70;;;;;;5017998;28;20030;-77
2021/10/21 04:27:58;;;;;;;50.78;24.88;;;18.40;76.50;;;;;;5017727;28;20037;-77
2021/10/21 04:30:25;;;;;;;28.25;12.23;;;18.40;76.60;;;;;;5001505;28;20109;-79
2021/10/21 04:32:51;;;;;;;20.92;5.05;;;18.40;76.70;;;;;;5016804;28;20401;-76
2021/10/21 04:35:18;;;;;;;15.57;4.38;;;18.40;76.80;;;;;;5016430;28;20022;-75
2021/10/21 04:37:44;;;;;;;10.75;4.20;;;18.40;76.80;;;;;;5021360;28;20104;-71
2021/10/21 04:40:11;;;;;;;9.95;4.18;;;18.40;77.10;;;;;;5016441;28;20572;-75
2021/10/21 04:42:38;;;;;;;19.00;5.57;;;18.40;77.10;;;;;;5021731;28;20026;-73
2021/10/21 04:45:05;;;;;;;15.18;4.93;;;18.40;77.10;;;;;;5015335;28;20013;-78
2021/10/21 04:47:32;;;;;;;15.05;3.67;;;18.40;77.10;;;;;;5021515;28;20044;-79
2021/10/21 04:49:58;;;;;;;27.55;5.03;;;18.40;77.20;;;;;;5014952;28;20112;-76
2021/10/21 04:52:25;;;;;;;13.55;3.50;;;18.40;77.20;;;;;;5017182;28;20512;-73
2021/10/21 04:54:51;;;;;;;12.70;4.55;;;18.40;77.20;;;;;;4997192;28;20623;-73
2021/10/21 04:57:18;;;;;;;20.60;4.75;;;18.40;77.10;;;;;;5017240;28;20028;-75
2021/10/21 04:59:44;;;;;;;15.38;3.70;;;18.40;77.10;;;;;;5018025;28;20022;-75
2021/10/21 05:02:10;;;;;;;16.98;4.50;;;18.50;77.20;;;;;;5016342;28;20377;-75
2021/10/21 05:04:37;;;;;;;11.30;4.22;;;18.50;77.30;;;;;;5018621;28;20048;-75
2021/10/21 05:07:04;;;;;;;17.67;4.45;;;18.50;77.40;;;;;;5005594;28;20109;-75
2021/10/21 05:09:31;;;;;;;11.90;3.67;;;18.60;77.50;;;;;;4999464;28;20491;-72
2021/10/21 05:11:57;;;;;;;12.45;4.18;;;18.50;77.30;;;;;;5013845;28;20018;-75
2021/10/21 05:14:24;;;;;;;14.95;4.38;;;18.60;77.20;;;;;;5019343;28;20029;-75
2021/10/21 05:16:51;;;;;;;19.23;5.38;;;18.60;77.10;;;;;;5017344;28;20013;-75
2021/10/21 05:19:17;;;;;;;14.70;3.50;;;18.60;77.00;;;;;;5015342;28;20461;-75
2021/10/21 05:21:44;;;;;;;20.55;4.05;;;18.70;76.70;;;;;;5016241;28;20018;-75
2021/10/21 05:24:10;;;;;;;19.17;4.50;;;18.70;76.70;;;;;;5015082;28;20485;-75
2021/10/21 05:26:37;;;;;;;21.42;6.03;;;18.80;76.60;;;;;;5017986;28;20022;-72
2021/10/21 05:29:03;;;;;;;10.02;3.80;;;18.80;76.40;;;;;;5017571;28;20093;-75
2021/10/21 05:31:30;;;;;;;15.02;5.57;;;18.80;75.90;;;;;;5018021;28;20022;-74
2021/10/21 05:33:56;;;;;;;17.00;4.75;;;18.80;75.80;;;;;;5016584;28;20041;-74
2021/10/21 05:36:23;;;;;;;18.92;5.05;;;18.90;75.90;;;;;;5016405;28;20045;-74
2021/10/21 05:38:51;;;;;;;17.17;6.05;;;18.90;75.80;;;;;;5016476;28;20045;-74
2021/10/21 05:41:18;;;;;;;13.98;4.28;;;19.00;76.40;;;;;;5019657;28;20376;-74
2021/10/21 05:43:44;;;;;;;17.63;4.53;;;19.00;75.10;;;;;;5015988;28;20872;-74
2021/10/21 05:46:11;;;;;;;17.08;4.68;;;19.00;75.00;;;;;;5017085;28;20026;-74
2021/10/21 05:48:37;;;;;;;19.45;5.47;;;19.00;75.00;;;;;;5018531;28;20028;-74
2021/10/21 05:51:04;;;;;;;21.08;4.05;;;19.00;75.10;;;;;;5015112;28;20022;-74
2021/10/21 05:53:30;;;;;;;21.58;5.40;;;19.10;75.20;;;;;;5015425;28;20031;-74
2021/10/21 05:55:57;;;;;;;19.60;5.03;;;19.10;75.70;;;;;;5019159;28;20043;-74
2021/10/21 05:58:23;;;;;;;13.77;4.80;;;19.10;74.90;;;;;;5018008;28;20025;-74
2021/10/21 06:00:50;;;;;;;20.27;5.15;;;19.20;74.80;;;;;;5016713;28;20034;-74
2021/10/21 06:03:16;;;;;;;16.23;4.68;;;19.20;74.80;;;;;;5012109;28;20034;-75
2021/10/21 06:05:43;;;;;;;13.63;4.45;;;19.20;75.60;;;;;;5019564;28;20116;-75
2021/10/21 06:08:09;;;;;;;14.57;4.88;;;19.40;74.80;;;;;;5019969;28;20017;-75
2021/10/21 06:10:35;;;;;;;16.95;4.95;;;19.40;74.20;;;;;;5020188;28;20056;-74
2021/10/21 06:13:04;;;;;;;17.88;4.15;;;19.50;73.60;;;;;;5022872;28;20084;-75
2021/10/21 06:15:31;;;;;;;14.52;4.30;;;19.50;73.20;;;;;;5018512;28;20017;-75
2021/10/21 06:18:01;;;;;;;17.17;5.65;;;19.60;73.30;;;;;;5005000;28;20526;-75
2021/10/21 06:20:28;;;;;;;18.67;6.63;;;19.60;73.00;;;;;;5019326;28;20075;-75
2021/10/21 06:22:55;;;;;;;19.42;5.03;;;19.60;72.40;;;;;;5021824;28;20046;-75
2021/10/21 06:25:22;;;;;;;18.17;5.80;;;19.70;72.20;;;;;;5019428;28;20041;-75
2021/10/21 06:27:49;;;;;;;22.73;5.00;;;19.70;71.90;;;;;;5021086;28;20076;-74
2021/10/21 06:30:15;;;;;;;28.08;14.00;;;19.80;71.80;;;;;;5019593;28;20034;-73
2021/10/21 06:32:43;;;;;;;22.98;8.52;;;19.80;71.30;;;;;;5021366;28;21006;-74
2021/10/21 06:35:14;;;;;;;29.67;9.05;;;19.90;70.60;;;;;;5021270;28;20029;-74
2021/10/21 06:37:41;;;;;;;20.38;6.20;;;20.00;70.40;;;;;;5012318;28;20056;-75
2021/10/21 06:40:08;;;;;;;23.48;5.60;;;20.00;69.90;;;;;;5007009;28;20599;-74
2021/10/21 06:42:35;;;;;;;23.35;6.93;;;20.00;69.70;;;;;;5011784;28;20043;-74
2021/10/21 06:45:02;;;;;;;20.23;7.30;;;20.10;69.80;;;;;;5015355;28;20044;-74
2021/10/21 06:47:28;;;;;;;21.13;5.00;;;20.20;69.80;;;;;;5014311;28;20030;-75
2021/10/21 06:49:55;;;;;;;16.98;4.85;;;20.30;69.20;;;;;;5014015;28;20459;-74
2021/10/21 06:52:21;;;;;;;20.92;5.38;;;20.30;68.70;;;;;;5011478;28;20092;-74
2021/10/21 06:54:48;;;;;;;24.50;6.63;;;20.40;68.10;;;;;;5013833;28;20083;-74
2021/10/21 06:57:15;;;;;;;21.80;6.07;;;20.50;68.10;;;;;;5013461;28;20048;-74
2021/10/21 06:59:41;;;;;;;25.95;13.05;;;20.50;67.80;;;;;;5015940;28;20048;-72
2021/10/21 07:02:08;;;;;;;30.17;14.13;;;20.60;67.30;;;;;;5019572;28;20022;-69
2021/10/21 07:04:34;;;;;;;18.42;7.72;;;20.60;66.90;;;;;;5018800;28;20026;-73
2021/10/21 07:07:01;;;;;;;24.38;5.57;;;20.70;67.20;;;;;;5013945;28;20022;-75
2021/10/21 07:09:27;;;;;;;16.10;6.18;;;20.70;66.90;;;;;;5004843;28;20023;-74
2021/10/21 07:11:53;;;;;;;17.25;5.55;;;20.80;66.90;;;;;;5011817;28;20025;-74
2021/10/21 07:14:20;;;;;;;23.25;6.25;;;20.90;66.30;;;;;;5012896;28;20053;-73
2021/10/21 07:16:47;;;;;;;20.17;5.65;;;21.00;65.60;;;;;;5015295;28;20049;-74
2021/10/21 07:19:13;;;;;;;23.92;5.10;;;21.10;65.10;;;;;;5013945;28;20037;-71
2021/10/21 07:21:40;;;;;;;26.65;6.28;;;21.10;65.00;;;;;;5018873;28;20165;-73
2021/10/21 07:24:07;;;;;;;22.98;5.93;;;21.20;64.40;;;;;;5021972;28;20436;-74
2021/10/21 07:26:33;;;;;;;21.05;7.40;;;21.30;63.90;;;;;;5017992;28;20022;-76
2021/10/21 07:29:00;;;;;;;25.85;7.22;;;21.40;64.10;;;;;;5021325;28;20064;-76
2021/10/21 07:31:26;;;;;;;27.20;6.22;;;21.50;64.00;;;;;;5023357;28;20014;-76
2021/10/21 07:33:53;;;;;;;26.40;5.18;;;21.60;63.80;;;;;;5016483;28;20041;-75
2021/10/21 07:36:22;;;;;;;22.23;5.65;;;21.60;63.40;;;;;;5019406;28;20088;-73
2021/10/21 07:38:50;;;;;;;24.58;6.78;;;21.70;63.00;;;;;;5019290;28;20064;-73
2021/10/21 07:41:21;;;;;;;25.58;8.90;;;21.80;62.80;;;;;;5024112;28;20021;-75
2021/10/21 07:43:48;;;;;;;44.75;8.95;;;21.80;62.10;;;;;;5017021;28;20372;-73
2021/10/21 07:46:14;;;;;;;22.40;6.35;;;21.90;61.90;;;;;;5019290;28;20053;-75
2021/10/21 07:48:41;;;;;;;52.45;10.88;;;21.90;61.90;;;;;;5006249;28;20027;-73
2021/10/21 07:51:07;;;;;;;19.77;6.20;;;21.90;62.00;;;;;;5014484;28;20021;-73
2021/10/21 07:53:34;;;;;;;62.83;11.20;;;21.90;62.30;;;;;;5017576;28;20018;-73
2021/10/21 07:56:01;;;;;;;23.90;5.78;;;22.00;61.50;;;;;;5013554;28;20022;-73
2021/10/21 07:58:28;;;;;;;23.85;6.20;;;21.90;59.50;;;;;;5015043;28;20025;-72
2021/10/21 08:00:54;;;;;;;70.15;11.93;;;21.90;58.80;;;;;;5016815;28;20029;-74
2021/10/21 08:03:21;;;;;;;29.63;9.23;;;22.00;57.90;;;;;;5018341;28;20458;-73
2021/10/21 08:05:48;;;;;;;52.20;14.68;;;22.10;58.40;;;;;;5015624;28;20029;-74
2021/10/21 08:08:14;;;;;;;41.03;9.23;;;22.10;59.10;;;;;;5012943;28;20064;-74
2021/10/21 08:10:41;;;;;;;20.25;6.50;;;22.20;58.90;;;;;;5017496;28;20021;-74
2021/10/21 08:13:10;;;;;;;25.10;6.75;;;22.20;58.50;;;;;;5016331;28;20079;-74
2021/10/21 08:15:37;;;;;;;31.00;6.03;;;22.30;58.10;;;;;;5000793;28;20065;-74
2021/10/21 08:18:03;;;;;;;24.00;6.10;;;22.40;57.90;;;;;;5016533;28;20072;-74
2021/10/21 08:20:30;;;;;;;20.23;5.10;;;22.40;57.00;;;;;;5015253;28;20124;-74
2021/10/21 08:22:57;;;;;;;28.00;6.07;;;22.50;57.20;;;;;;5015557;28;20129;-74
2021/10/21 08:25:25;;;;;;;16.15;6.13;;;22.40;57.00;;;;;;5014248;28;20028;-74
2021/10/21 08:27:52;;;;;;;19.35;6.05;;;22.40;56.90;;;;;;5018132;28;20405;-74
2021/10/21 08:30:22;;;;;;;21.42;5.97;;;22.40;56.70;;;;;;5013085;28;20024;-74
2021/10/21 08:32:49;;;;;;;22.38;5.07;;;22.40;57.20;;;;;;4999443;28;20049;-74
2021/10/21 08:35:16;;;;;;;19.83;5.70;;;22.50;57.20;;;;;;5014732;28;20383;-74
2021/10/21 08:37:43;;;;;;;20.10;5.53;;;22.60;56.40;;;;;;5016079;28;20117;-75
2021/10/21 08:40:10;;;;;;;99.30;78.38;;;22.70;56.60;;;;;;5016622;28;20037;-74
2021/10/21 08:42:37;;;;;;;27.15;10.27;;;22.80;56.80;;;;;;5017368;28;20548;-72
2021/10/21 08:45:05;;;;;;;17.00;6.50;;;22.90;56.10;;;;;;5018523;28;20393;-74
2021/10/21 08:47:34;;;;;;;22.63;6.65;;;23.10;55.60;;;;;;5015824;28;20022;-75
2021/10/21 08:50:02;;;;;;;20.60;4.57;;;23.20;55.20;;;;;;5018400;28;20026;-75
2021/10/21 08:52:29;;;;;;;19.35;5.20;;;23.40;55.10;;;;;;5014134;28;20022;-77
2021/10/21 08:54:56;;;;;;;108.03;16.27;;;23.60;54.60;;;;;;5021455;28;20006;-82
2021/10/21 08:57:22;;;;;;;41.28;9.48;;;23.70;53.40;;;;;;5006440;28;20036;-77
2021/10/21 08:59:49;;;;;;;35.08;17.60;;;23.80;52.70;;;;;;5020382;28;20046;-79
2021/10/21 09:05:01;;;;;;;59.33;12.10;;;23.90;51.90;;;;;;5007464;28;20090;-77
2021/10/21 09:10:13;;;;;;;113.13;17.50;;;24.10;47.80;;;;;;5014081;28;20048;-78
2021/10/21 09:12:42;;;;;;;153.25;25.92;;;24.20;47.20;;;;;;5015890;28;20025;-78
2021/10/21 09:15:16;;;;;;;33.50;7.15;;;24.10;48.10;;;;;;5013639;28;20032;-76
2021/10/21 09:17:44;;;;;;;26.30;6.20;;;24.20;49.40;;;;;;5013838;28;20702;-78
2021/10/21 09:20:37;;;;;;;21.30;6.25;;;24.20;50.30;;;;;;5015894;28;20033;-78
2021/10/21 09:23:09;;;;;;;16.92;4.35;;;24.30;50.50;;;;;;4996265;28;20044;-80
2021/10/21 09:25:38;;;;;;;69.10;53.00;;;24.40;49.80;;;;;;4994092;28;20101;-79
2021/10/21 09:28:18;;;;;;;35.47;20.52;;;24.40;50.10;;;;;;5014177;28;20022;-78
2021/10/21 09:31:05;;;;;;;21.73;6.20;;;24.50;50.10;;;;;;5015099;28;20044;-79
2021/10/21 09:33:55;;;;;;;23.27;4.97;;;24.50;50.30;;;;;;5013819;28;20481;-77
2021/10/21 09:36:24;;;;;;;36.28;9.15;;;24.60;50.40;;;;;;5013090;28;20420;-78
2021/10/21 09:38:56;;;;;;;20.65;8.15;;;24.60;50.20;;;;;;5013612;28;20115;-78
2021/10/21 09:41:25;;;;;;;24.48;6.22;;;24.70;50.20;;;;;;5013882;28;20018;-79
2021/10/21 09:43:52;;;;;;;25.70;5.95;;;24.80;50.40;;;;;;5011448;28;20054;-79
2021/10/21 09:46:41;;;;;;;25.48;5.75;;;24.90;50.20;;;;;;5012548;28;20105;-78
2021/10/21 09:49:28;;;;;;;36.28;10.73;;;25.00;50.10;;;;;;5013804;28;20017;-78
2021/10/21 09:51:55;;;;;;;33.53;8.90;;;25.10;49.80;;;;;;5014015;28;20021;-78
2021/10/21 09:54:22;;;;;;;21.50;7.05;;;25.30;48.40;;;;;;5015234;28;20026;-78
2021/10/21 09:57:02;;;;;;;26.15;6.60;;;25.30;52.20;;;;;;5012455;28;20167;-78
2021/10/21 09:59:35;;;;;;;82.85;15.45;;;25.30;53.30;;;;;;5014753;28;21078;-78
2021/10/21 10:02:16;;;;;;;23.25;5.70;;;25.20;53.50;;;;;;5015303;28;20489;-78
2021/10/21 10:04:53;;;;;;;36.35;8.57;;;25.00;53.80;;;;;;5017727;28;20092;-77
2021/10/21 10:07:27;;;;;;;27.65;6.50;;;24.90;54.50;;;;;;5014951;28;20025;-80
2021/10/21 10:10:00;;;;;;;26.35;6.78;;;24.70;54.80;;;;;;5014432;28;21866;-79
2021/10/21 10:12:36;;;;;;;21.67;6.88;;;24.40;55.90;;;;;;5017293;28;20469;-82
2021/10/21 10:15:03;;;;;;;27.98;7.70;;;24.20;57.00;;;;;;5014624;28;20037;-80
2021/10/21 10:17:30;;;;;;;22.88;6.28;;;24.00;58.00;;;;;;5016231;28;20025;-77
2021/10/21 10:19:57;;;;;;;20.40;6.50;;;23.90;58.20;;;;;;5011445;28;20044;-82
2021/10/21 10:22:42;;;;;;;20.40;7.55;;;23.70;58.20;;;;;;5015852;28;20112;-81
2021/10/21 10:25:20;;;;;;;27.13;7.40;;;23.70;58.80;;;;;;5006110;28;21329;-79
2021/10/21 10:28:06;;;;;;;17.85;6.75;;;23.50;59.30;;;;;;5010723;28;20030;-81
2021/10/21 10:30:48;;;;;;;30.95;9.50;;;23.50;58.30;;;;;;5015758;28;20603;-80
2021/10/21 10:33:35;;;;;;;29.17;6.28;;;23.60;58.80;;;;;;5013490;28;20592;-81
2021/10/21 10:36:30;;;;;;;23.60;8.10;;;23.60;58.00;;;;;;5001653;28;20034;-78
2021/10/21 10:39:07;;;;;;;30.67;7.45;;;23.50;58.80;;;;;;5014248;28;20063;-79
2021/10/21 10:41:45;;;;;;;33.80;9.82;;;23.50;59.30;;;;;;5013653;28;20038;-78
2021/10/21 10:44:32;;;;;;;23.17;7.15;;;23.40;59.40;;;;;;5013380;28;20543;-77
2021/10/21 10:46:59;;;;;;;29.83;7.68;;;23.40;59.80;;;;;;5013481;28;20485;-77
2021/10/21 10:49:38;;;;;;;22.95;8.05;;;23.40;60.10;;;;;;5013362;28;20072;-79
2021/10/21 10:52:06;;;;;;;32.95;9.43;;;23.30;59.70;;;;;;5016231;28;20858;-78
2021/10/21 10:54:47;;;;;;;35.92;10.98;;;23.20;59.70;;;;;;5015402;28;20033;-74
2021/10/21 10:57:34;;;;;;;26.08;7.32;;;23.20;60.30;;;;;;5017161;28;20100;-75
2021/10/21 11:00:23;;;;;;;27.65;7.40;;;22.90;61.00;;;;;;5007559;28;20049;-74
2021/10/21 11:02:59;;;;;;;28.08;6.45;;;22.70;61.30;;;;;;5009037;28;20030;-75
2021/10/21 11:05:44;;;;;;;23.70;6.28;;;22.50;62.00;;;;;;5012383;28;20018;-75
2021/10/21 11:08:15;;;;;;;22.67;5.88;;;22.30;62.70;;;;;;5012624;28;20037;-75
2021/10/21 11:10:46;;;;;;;26.83;6.70;;;22.20;63.30;;;;;;5010885;28;20072;-74
2021/10/21 11:13:34;;;;;;;28.48;6.90;;;22.10;63.50;;;;;;5012888;28;20029;-74
2021/10/21 11:16:02;;;;;;;23.73;6.43;;;22.00;63.40;;;;;;5016621;28;20017;-73
2021/10/21 11:18:32;;;;;;;43.95;16.48;;;22.00;63.80;;;;;;5018369;28;20805;-75
2021/10/21 11:20:58;;;;;;;22.30;7.07;;;21.90;63.60;;;;;;5014238;28;20030;-75
2021/10/21 11:23:31;;;;;;;26.90;8.80;;;21.90;63.20;;;;;;5018248;28;20131;-76
2021/10/21 11:26:02;;;;;;;30.77;7.03;;;21.90;63.20;;;;;;5016474;28;20080;-76
2021/10/21 11:28:31;;;;;;;18.67;5.25;;;21.80;63.30;;;;;;5017351;28;20020;-75
2021/10/21 11:30:59;;;;;;;34.05;9.30;;;21.80;63.60;;;;;;5014686;28;20030;-76
2021/10/21 11:33:28;;;;;;;27.00;7.38;;;21.90;64.40;;;;;;5015541;28;20048;-75
2021/10/21 11:36:01;;;;;;;26.75;6.60;;;22.00;63.90;;;;;;5016961;28;20022;-75
2021/10/21 11:38:27;;;;;;;24.73;5.72;;;22.20;63.60;;;;;;5015946;28;20532;-75
2021/10/21 11:41:02;;;;;;;27.70;7.05;;;22.30;63.40;;;;;;5013367;28;20033;-75
2021/10/21 11:43:39;;;;;;;31.42;7.03;;;22.50;62.60;;;;;;5015003;28;20030;-75
2021/10/21 11:46:08;;;;;;;31.75;6.85;;;22.70;62.10;;;;;;5013739;28;20021;-74
2021/10/21 11:48:37;;;;;;;27.63;7.25;;;22.80;61.30;;;;;;5018283;28;20032;-75
2021/10/21 11:51:08;;;;;;;25.80;7.10;;;22.80;61.10;;;;;;5017211;28;20448;-75
2021/10/21 11:53:35;;;;;;;28.10;8.32;;;22.80;61.10;;;;;;5019184;28;20029;-75
2021/10/21 11:56:01;;;;;;;18.00;7.45;;;23.00;60.90;;;;;;5018768;28;20078;-75
2021/10/21 11:58:33;;;;;;;32.42;6.78;;;23.20;60.90;;;;;;5016256;28;20056;-75
2021/10/21 12:01:06;;;;;;;25.20;7.40;;;23.40;60.30;;;;;;5018449;28;20037;-75
2021/10/21 12:03:42;;;;;;;23.77;6.50;;;23.60;59.50;;;;;;5015798;28;20029;-75
2021/10/21 12:06:14;;;;;;;29.50;6.50;;;23.80;59.30;;;;;;5016928;28;20361;-75
2021/10/21 12:08:53;;;;;;;28.92;8.23;;;23.80;58.00;;;;;;5015135;28;20112;-75
2021/10/21 12:11:21;;;;;;;29.33;6.43;;;23.90;57.80;;;;;;5015387;28;20030;-75
2021/10/21 12:13:48;;;;;;;28.85;6.57;;;24.00;57.90;;;;;;5018823;28;20385;-75
2021/10/21 12:16:17;;;;;;;28.63;6.47;;;24.00;57.50;;;;;;5015267;28;20034;-75
2021/10/21 12:18:44;;;;;;;26.30;7.65;;;23.90;57.60;;;;;;5017103;28;20021;-75
2021/10/21 12:21:10;;;;;;;23.27;5.95;;;24.00;57.50;;;;;;5019447;28;20113;-75
2021/10/21 12:23:49;;;;;;;26.33;7.72;;;23.90;57.50;;;;;;5020159;28;20033;-75
2021/10/21 12:26:33;;;;;;;23.92;6.22;;;24.00;57.50;;;;;;5016940;28;20025;-75
2021/10/21 12:29:07;;;;;;;37.10;15.67;;;24.00;56.80;;;;;;5019954;28;20018;-76
2021/10/21 12:31:36;;;;;;;18.88;6.90;;;23.90;57.20;;;;;;5018432;28;20393;-74
2021/10/21 12:34:14;;;;;;;18.90;5.05;;;24.00;57.40;;;;;;5000634;28;20050;-75
2021/10/21 12:36:44;;;;;;;24.35;6.38;;;23.90;57.30;;;;;;5004369;28;20049;-74
2021/10/21 12:39:13;;;;;;;16.55;6.78;;;23.80;57.20;;;;;;5004999;28;20087;-75
2021/10/21 12:41:54;;;;;;;29.63;6.65;;;23.60;57.50;;;;;;5001904;28;20029;-75
2021/10/21 12:44:26;;;;;;;29.58;6.10;;;23.50;57.90;;;;;;5005724;28;20044;-74
2021/10/21 12:47:27;;;;;;;23.85;6.80;;;23.40;58.40;;;;;;5005288;28;20113;-74
2021/10/21 12:50:05;;;;;;;21.63;6.57;;;23.30;58.80;;;;;;5005782;28;20488;-75
2021/10/21 12:52:40;;;;;;;23.77;6.60;;;23.30;59.10;;;;;;5007025;28;20018;-75
2021/10/21 12:55:32;;;;;;;19.23;5.90;;;23.20;58.90;;;;;;5001430;28;20022;-75
2021/10/21 12:58:07;;;;;;;25.63;6.22;;;23.20;59.20;;;;;;5006870;28;20034;-75
2021/10/21 13:00:45;;;;;;;23.15;5.80;;;23.20;59.10;;;;;;5005943;28;20030;-74
2021/10/21 13:03:21;;;;;;;25.88;6.95;;;23.10;59.00;;;;;;5001590;28;20429;-75